sensor_id;sensor_type;location;lat;lon;timestamp;P1;durP1;ratioP1;P2;durP2;ratioP2
42802;SDS011;28447;48.682;9.022;2023-04-24T04:00:31;2.07;;;1.50;;
42802;SDS011;28447;48.682;9.022;2023-04-24T04:02:57;2.03;;;1.57;;
42802;SDS011;28447;48.682;9.022;2023-04-24T04:05:22;1.80;;;1.57;;
42802;SDS011;28447;48.682;9.022;2023-04-24T04:07:48;1.50;;;1.40;;
42802;SDS011;28447;48.682;9.022;2023-04-24T04:10:14;1.80;;;1.40;;
42802;SDS011;28447;48.682;9.022;2023-04-24T04:12:39;2.90;;;1.50;;
42802;SDS011;28447;48.682;9.022;2023-04-24T04:15:05;4.40;;;1.37;;
42802;SDS011;28447;48.682;9.022;2023-04-24T04:17:31;2.17;;;1.77;;
42802;SDS011;28447;48.682;9.022;2023-04-24T04:19:57;1.87;;;1.50;;
42802;SDS011;28447;48.682;9.022;2023-04-24T04:22:23;1.70;;;1.30;;
42802;SDS011;28447;48.682;9.022;2023-04-24T04:24:49;2.13;;;1.50;;
42802;SDS011;28447;48.682;9.022;2023-04-24T04:27:15;3.40;;;1.53;;
42802;SDS011;28447;48.682;9.022;2023-04-24T04:29:41;2.87;;;2.23;;
42802;SDS011;28447;48.682;9.022;2023-04-24T04:32:07;3.10;;;2.00;;
42802;SDS011;28447;48.682;9.022;2023-04-24T04:34:33;3.20;;;2.50;;
42802;SDS011;28447;48.682;9.022;2023-04-24T04:36:58;2.40;;;2.20;;
42802;SDS011;28447;48.682;9.022;2023-04-24T04:39:26;3.70;;;2.63;;
42802;SDS011;28447;48.682;9.022;2023-04-24T04:41:53;2.93;;;2.40;;
42802;SDS011;28447;48.682;9.022;2023-04-24T04:44:19;6.80;;;3.10;;
42802;SDS011;28447;48.682;9.022;2023-04-24T04:46:44;3.30;;;2.60;;
42802;SDS011;28447;48.682;9.022;2023-04-24T04:49:10;3.70;;;2.67;;
42802;SDS011;28447;48.682;9.022;2023-04-24T04:51:36;4.43;;;2.70;;
42802;SDS011;28447;48.682;9.022;2023-04-24T04:54:01;3.60;;;3.00;;
42802;SDS011;28447;48.682;9.022;2023-04-24T04:56:27;2.93;;;2.57;;
42802;SDS011;28447;48.682;9.022;2023-04-24T04:58:53;3.30;;;2.50;;
42802;SDS011;28447;48.682;9.022;2023-04-24T05:01:18;3.37;;;2.57;;
42802;SDS011;28447;48.682;9.022;2023-04-24T05:03:44;3.00;;;2.70;;
42802;SDS011;28447;48.682;9.022;2023-04-24T05:06:10;3.17;;;2.60;;
42802;SDS011;28447;48.682;9.022;2023-04-24T05:08:35;5.10;;;3.10;;
42802;SDS011;28447;48.682;9.022;2023-04-24T05:11:01;3.37;;;3.00;;
42802;SDS011;28447;48.682;9.022;2023-04-24T05:13:27;5.10;;;2.90;;
42802;SDS011;28447;48.682;9.022;2023-04-24T05:15:52;6.90;;;3.13;;
42802;SDS011;28447;48.682;9.022;2023-04-24T05:18:18;3.70;;;3.17;;
42802;SDS011;28447;48.682;9.022;2023-04-24T05:20:43;4.60;;;3.07;;
42802;SDS011;28447;48.682;9.022;2023-04-24T05:23:09;4.30;;;3.47;;
42802;SDS011;28447;48.682;9.022;2023-04-24T05:25:36;3.93;;;3.03;;
42802;SDS011;28447;48.682;9.022;2023-04-24T05:28:04;5.13;;;3.07;;
42802;SDS011;28447;48.682;9.022;2023-04-24T05:30:30;5.13;;;3.33;;
42802;SDS011;28447;48.682;9.022;2023-04-24T05:32:55;6.80;;;3.07;;
42802;SDS011;28447;48.682;9.022;2023-04-24T05:35:21;4.07;;;3.20;;
42802;SDS011;28447;48.682;9.022;2023-04-24T05:37:47;5.43;;;4.00;;
42802;SDS011;28447;48.682;9.022;2023-04-24T05:40:12;3.80;;;3.40;;
42802;SDS011;28447;48.682;9.022;2023-04-24T05:42:38;3.83;;;3.40;;
42802;SDS011;28447;48.682;9.022;2023-04-24T05:45:04;3.90;;;3.17;;
42802;SDS011;28447;48.682;9.022;2023-04-24T05:47:30;3.93;;;3.20;;
42802;SDS011;28447;48.682;9.022;2023-04-24T05:49:56;3.80;;;3.30;;
42802;SDS011;28447;48.682;9.022;2023-04-24T05:52:21;4.87;;;3.30;;
42802;SDS011;28447;48.682;9.022;2023-04-24T05:54:47;3.60;;;3.10;;
42802;SDS011;28447;48.682;9.022;2023-04-24T05:57:13;4.80;;;3.50;;
42802;SDS011;28447;48.682;9.022;2023-04-24T05:59:38;3.40;;;3.00;;
42802;SDS011;28447;48.682;9.022;2023-04-24T06:02:05;6.03;;;3.90;;
42802;SDS011;28447;48.682;9.022;2023-04-24T06:04:31;3.93;;;2.83;;
42802;SDS011;28447;48.682;9.022;2023-04-24T06:06:57;6.00;;;4.50;;
42802;SDS011;28447;48.682;9.022;2023-04-24T06:09:23;4.03;;;3.23;;
42802;SDS011;28447;48.682;9.022;2023-04-24T06:11:49;7.37;;;3.30;;
42802;SDS011;28447;48.682;9.022;2023-04-24T06:14:18;4.37;;;3.53;;
42802;SDS011;28447;48.682;9.022;2023-04-24T06:16:44;4.93;;;3.70;;
42802;SDS011;28447;48.682;9.022;2023-04-24T06:19:09;3.63;;;3.23;;
42802;SDS011;28447;48.682;9.022;2023-04-24T06:21:35;3.30;;;2.87;;
42802;SDS011;28447;48.682;9.022;2023-04-24T06:24:01;4.90;;;3.00;;
42802;SDS011;28447;48.682;9.022;2023-04-24T06:26:27;3.40;;;2.67;;
42802;SDS011;28447;48.682;9.022;2023-04-24T06:28:53;4.30;;;3.23;;
42802;SDS011;28447;48.682;9.022;2023-04-24T06:31:19;3.40;;;2.90;;
42802;SDS011;28447;48.682;9.022;2023-04-24T06:33:45;3.90;;;2.50;;
42802;SDS011;28447;48.682;9.022;2023-04-24T06:36:11;3.60;;;2.50;;
42802;SDS011;28447;48.682;9.022;2023-04-24T06:38:37;5.37;;;3.10;;
42802;SDS011;28447;48.682;9.022;2023-04-24T06:41:03;4.40;;;3.50;;
42802;SDS011;28447;48.682;9.022;2023-04-24T06:43:30;4.77;;;3.47;;
42802;SDS011;28447;48.682;9.022;2023-04-24T06:45:59;11.73;;;4.43;;
42802;SDS011;28447;48.682;9.022;2023-04-24T06:48:25;3.67;;;2.73;;
42802;SDS011;28447;48.682;9.022;2023-04-24T06:50:51;3.80;;;2.97;;
42802;SDS011;28447;48.682;9.022;2023-04-24T06:53:17;5.43;;;3.10;;
42802;SDS011;28447;48.682;9.022;2023-04-24T06:55:43;3.00;;;2.70;;
42802;SDS011;28447;48.682;9.022;2023-04-24T06:58:11;3.30;;;3.00;;
42802;SDS011;28447;48.682;9.022;2023-04-24T07:00:37;3.57;;;3.00;;
42802;SDS011;28447;48.682;9.022;2023-04-24T07:03:03;4.10;;;2.87;;
42802;SDS011;28447;48.682;9.022;2023-04-24T07:05:32;5.03;;;3.23;;
42802;SDS011;28447;48.682;9.022;2023-04-24T07:08:00;3.00;;;2.50;;
42802;SDS011;28447;48.682;9.022;2023-04-24T07:10:26;3.23;;;2.83;;
42802;SDS011;28447;48.682;9.022;2023-04-24T07:12:53;2.93;;;2.37;;
42802;SDS011;28447;48.682;9.022;2023-04-24T07:15:19;4.10;;;2.60;;
42802;SDS011;28447;48.682;9.022;2023-04-24T07:17:45;4.23;;;2.30;;
42802;SDS011;28447;48.682;9.022;2023-04-24T07:20:11;2.50;;;2.30;;
42802;SDS011;28447;48.682;9.022;2023-04-24T07:22:37;2.47;;;2.10;;
42802;SDS011;28447;48.682;9.022;2023-04-24T07:25:03;4.00;;;2.50;;
42802;SDS011;28447;48.682;9.022;2023-04-24T07:27:30;2.40;;;2.20;;
42802;SDS011;28447;48.682;9.022;2023-04-24T07:29:55;3.43;;;2.40;;
42802;SDS011;28447;48.682;9.022;2023-04-24T07:32:21;6.73;;;2.20;;
42802;SDS011;28447;48.682;9.022;2023-04-24T07:34:47;2.67;;;2.20;;
42802;SDS011;28447;48.682;9.022;2023-04-24T07:37:12;2.57;;;1.83;;
42802;SDS011;28447;48.682;9.022;2023-04-24T07:39:38;2.27;;;2.07;;
42802;SDS011;28447;48.682;9.022;2023-04-24T07:42:03;2.50;;;2.30;;
42802;SDS011;28447;48.682;9.022;2023-04-24T07:44:29;2.80;;;2.50;;
42802;SDS011;28447;48.682;9.022;2023-04-24T07:46:55;2.50;;;2.30;;
42802;SDS011;28447;48.682;9.022;2023-04-24T07:49:21;6.60;;;2.33;;
42802;SDS011;28447;48.682;9.022;2023-04-24T07:51:46;4.03;;;2.70;;
42802;SDS011;28447;48.682;9.022;2023-04-24T07:54:12;2.90;;;2.50;;
42802;SDS011;28447;48.682;9.022;2023-04-24T07:56:38;3.43;;;2.30;;
42802;SDS011;28447;48.682;9.022;2023-04-24T07:59:04;3.43;;;2.50;;
42802;SDS011;28447;48.682;9.022;2023-04-24T08:01:30;3.00;;;2.70;;
42802;SDS011;28447;48.682;9.022;2023-04-24T08:03:56;3.13;;;2.37;;
42802;SDS011;28447;48.682;9.022;2023-04-24T08:06:21;3.10;;;2.43;;
42802;SDS011;28447;48.682;9.022;2023-04-24T08:08:47;2.70;;;2.50;;
42802;SDS011;28447;48.682;9.022;2023-04-24T08:11:13;5.07;;;2.80;;
42802;SDS011;28447;48.682;9.022;2023-04-24T08:13:39;3.00;;;2.60;;
42802;SDS011;28447;48.682;9.022;2023-04-24T08:16:04;3.30;;;3.00;;
42802;SDS011;28447;48.682;9.022;2023-04-24T08:18:30;2.60;;;2.40;;
42802;SDS011;28447;48.682;9.022;2023-04-24T08:20:56;3.00;;;2.70;;
42802;SDS011;28447;48.682;9.022;2023-04-24T08:23:26;2.97;;;2.67;;
42802;SDS011;28447;48.682;9.022;2023-04-24T08:25:52;4.00;;;2.87;;
42802;SDS011;28447;48.682;9.022;2023-04-24T08:28:17;5.87;;;2.60;;
42802;SDS011;28447;48.682;9.022;2023-04-24T08:30:45;2.73;;;2.50;;
42802;SDS011;28447;48.682;9.022;2023-04-24T08:33:12;3.63;;;2.83;;
42802;SDS011;28447;48.682;9.022;2023-04-24T08:35:39;3.60;;;2.43;;
42802;SDS011;28447;48.682;9.022;2023-04-24T08:38:05;3.90;;;2.37;;
42802;SDS011;28447;48.682;9.022;2023-04-24T08:40:31;3.30;;;2.37;;
42802;SDS011;28447;48.682;9.022;2023-04-24T08:42:59;2.87;;;2.57;;
42802;SDS011;28447;48.682;9.022;2023-04-24T08:45:25;4.53;;;3.03;;
42802;SDS011;28447;48.682;9.022;2023-04-24T08:47:54;3.70;;;2.57;;
42802;SDS011;28447;48.682;9.022;2023-04-24T08:50:20;2.83;;;2.30;;
42802;SDS011;28447;48.682;9.022;2023-04-24T08:52:49;2.57;;;2.37;;
42802;SDS011;28447;48.682;9.022;2023-04-24T08:55:18;5.30;;;2.93;;
42802;SDS011;28447;48.682;9.022;2023-04-24T08:57:45;2.97;;;2.20;;
42802;SDS011;28447;48.682;9.022;2023-04-24T09:00:14;2.80;;;2.33;;
42802;SDS011;28447;48.682;9.022;2023-04-24T09:02:41;4.77;;;2.80;;
42802;SDS011;28447;48.682;9.022;2023-04-24T09:05:08;3.90;;;3.20;;
42802;SDS011;28447;48.682;9.022;2023-04-24T09:07:35;7.90;;;2.80;;
42802;SDS011;28447;48.682;9.022;2023-04-24T09:10:04;5.40;;;2.80;;
42802;SDS011;28447;48.682;9.022;2023-04-24T09:12:31;5.47;;;2.80;;
42802;SDS011;28447;48.682;9.022;2023-04-24T09:14:59;7.07;;;2.50;;
42802;SDS011;28447;48.682;9.022;2023-04-24T09:17:25;4.80;;;2.77;;
42802;SDS011;28447;48.682;9.022;2023-04-24T09:19:53;5.37;;;2.30;;
42802;SDS011;28447;48.682;9.022;2023-04-24T09:22:18;2.83;;;2.40;;
42802;SDS011;28447;48.682;9.022;2023-04-24T09:24:46;3.20;;;2.47;;
42802;SDS011;28447;48.682;9.022;2023-04-24T09:27:12;2.97;;;2.30;;
42802;SDS011;28447;48.682;9.022;2023-04-24T09:29:39;3.93;;;2.27;;
42802;SDS011;28447;48.682;9.022;2023-04-24T09:32:22;3.50;;;2.30;;
42802;SDS011;28447;48.682;9.022;2023-04-24T09:35:04;2.63;;;2.23;;
42802;SDS011;28447;48.682;9.022;2023-04-24T09:37:38;3.20;;;1.90;;
42802;SDS011;28447;48.682;9.022;2023-04-24T09:42:45;2.57;;;1.90;;
42802;SDS011;28447;48.682;9.022;2023-04-24T09:45:11;2.60;;;2.00;;
42802;SDS011;28447;48.682;9.022;2023-04-24T09:47:40;1.73;;;1.63;;
42802;SDS011;28447;48.682;9.022;2023-04-24T09:50:13;4.90;;;2.20;;
42802;SDS011;28447;48.682;9.022;2023-04-24T09:52:41;2.10;;;1.90;;
42802;SDS011;28447;48.682;9.022;2023-04-24T09:55:15;2.43;;;2.20;;
42802;SDS011;28447;48.682;9.022;2023-04-24T09:58:02;7.10;;;2.17;;
42802;SDS011;28447;48.682;9.022;2023-04-24T10:00:32;6.13;;;2.47;;
42802;SDS011;28447;48.682;9.022;2023-04-24T10:02:59;3.90;;;2.10;;
42802;SDS011;28447;48.682;9.022;2023-04-24T10:05:29;2.80;;;1.97;;
42802;SDS011;28447;48.682;9.022;2023-04-24T10:08:07;3.57;;;2.30;;
42802;SDS011;28447;48.682;9.022;2023-04-24T10:10:35;2.30;;;2.00;;
42802;SDS011;28447;48.682;9.022;2023-04-24T10:13:09;2.77;;;2.20;;
42802;SDS011;28447;48.682;9.022;2023-04-24T10:15:35;3.57;;;1.87;;
42802;SDS011;28447;48.682;9.022;2023-04-24T10:18:02;2.53;;;2.03;;
42802;SDS011;28447;48.682;9.022;2023-04-24T10:20:30;3.13;;;2.10;;
42802;SDS011;28447;48.682;9.022;2023-04-24T10:22:56;2.07;;;1.87;;
42802;SDS011;28447;48.682;9.022;2023-04-24T10:25:24;2.10;;;1.90;;
42802;SDS011;28447;48.682;9.022;2023-04-24T10:27:54;2.17;;;1.97;;
42802;SDS011;28447;48.682;9.022;2023-04-24T10:30:30;2.80;;;2.27;;
42802;SDS011;28447;48.682;9.022;2023-04-24T10:33:00;2.40;;;1.90;;
42802;SDS011;28447;48.682;9.022;2023-04-24T10:35:27;2.40;;;2.07;;
42802;SDS011;28447;48.682;9.022;2023-04-24T10:38:08;2.00;;;1.70;;
42802;SDS011;28447;48.682;9.022;2023-04-24T10:40:37;3.93;;;1.93;;
42802;SDS011;28447;48.682;9.022;2023-04-24T10:43:03;2.50;;;2.03;;
42802;SDS011;28447;48.682;9.022;2023-04-24T10:45:34;2.10;;;1.83;;
42802;SDS011;28447;48.682;9.022;2023-04-24T10:50:44;2.10;;;1.77;;
42802;SDS011;28447;48.682;9.022;2023-04-24T10:53:19;2.30;;;1.80;;
42802;SDS011;28447;48.682;9.022;2023-04-24T10:56:00;1.97;;;1.80;;
42802;SDS011;28447;48.682;9.022;2023-04-24T10:58:38;2.63;;;2.07;;
42802;SDS011;28447;48.682;9.022;2023-04-24T11:01:05;2.33;;;2.13;;
42802;SDS011;28447;48.682;9.022;2023-04-24T11:03:32;2.00;;;1.80;;
42802;SDS011;28447;48.682;9.022;2023-04-24T11:08:45;3.43;;;2.37;;
42802;SDS011;28447;48.682;9.022;2023-04-24T11:11:12;3.27;;;2.43;;
42802;SDS011;28447;48.682;9.022;2023-04-24T11:18:49;3.10;;;2.80;;
42802;SDS011;28447;48.682;9.022;2023-04-24T11:21:18;2.60;;;2.40;;
42802;SDS011;28447;48.682;9.022;2023-04-24T11:23:47;2.30;;;2.10;;
42802;SDS011;28447;48.682;9.022;2023-04-24T11:26:17;2.30;;;2.10;;
42802;SDS011;28447;48.682;9.022;2023-04-24T11:28:44;2.40;;;1.70;;
42802;SDS011;28447;48.682;9.022;2023-04-24T11:34:11;2.27;;;2.07;;
42802;SDS011;28447;48.682;9.022;2023-04-24T11:36:39;7.00;;;2.10;;
42802;SDS011;28447;48.682;9.022;2023-04-24T11:39:05;1.97;;;1.70;;
42802;SDS011;28447;48.682;9.022;2023-04-24T11:41:31;2.73;;;2.00;;
42802;SDS011;28447;48.682;9.022;2023-04-24T11:43:57;3.87;;;2.13;;
42802;SDS011;28447;48.682;9.022;2023-04-24T11:46:26;4.00;;;2.37;;
42802;SDS011;28447;48.682;9.022;2023-04-24T11:48:53;2.23;;;2.00;;
42802;SDS011;28447;48.682;9.022;2023-04-24T11:51:19;2.23;;;2.07;;
42802;SDS011;28447;48.682;9.022;2023-04-24T11:53:44;2.90;;;2.40;;
42802;SDS011;28447;48.682;9.022;2023-04-24T11:56:10;2.27;;;2.07;;
42802;SDS011;28447;48.682;9.022;2023-04-24T11:58:37;3.70;;;2.20;;
42802;SDS011;28447;48.682;9.022;2023-04-24T12:01:04;2.50;;;2.30;;
42802;SDS011;28447;48.682;9.022;2023-04-24T12:03:30;3.07;;;2.67;;
42802;SDS011;28447;48.682;9.022;2023-04-24T12:06:06;2.67;;;2.10;;
42802;SDS011;28447;48.682;9.022;2023-04-24T12:08:32;2.97;;;2.50;;
42802;SDS011;28447;48.682;9.022;2023-04-24T12:11:02;2.83;;;2.53;;
42802;SDS011;28447;48.682;9.022;2023-04-24T12:13:29;5.30;;;2.83;;
42802;SDS011;28447;48.682;9.022;2023-04-24T12:15:59;2.97;;;2.50;;
42802;SDS011;28447;48.682;9.022;2023-04-24T12:18:26;3.00;;;2.40;;
42802;SDS011;28447;48.682;9.022;2023-04-24T12:20:52;3.33;;;2.43;;
42802;SDS011;28447;48.682;9.022;2023-04-24T12:23:33;3.13;;;2.33;;
42802;SDS011;28447;48.682;9.022;2023-04-24T12:26:00;5.13;;;2.40;;
42802;SDS011;28447;48.682;9.022;2023-04-24T12:28:34;5.43;;;2.43;;
42802;SDS011;28447;48.682;9.022;2023-04-24T12:31:01;3.10;;;2.40;;
42802;SDS011;28447;48.682;9.022;2023-04-24T12:33:27;2.70;;;2.37;;
42802;SDS011;28447;48.682;9.022;2023-04-24T12:35:52;3.10;;;2.43;;
42802;SDS011;28447;48.682;9.022;2023-04-24T12:38:21;5.60;;;2.10;;
42802;SDS011;28447;48.682;9.022;2023-04-24T12:41:00;3.30;;;1.90;;
42802;SDS011;28447;48.682;9.022;2023-04-24T12:43:27;2.63;;;2.10;;
42802;SDS011;28447;48.682;9.022;2023-04-24T12:45:53;3.03;;;2.30;;
42802;SDS011;28447;48.682;9.022;2023-04-24T12:48:19;2.30;;;1.83;;
42802;SDS011;28447;48.682;9.022;2023-04-24T12:50:46;3.97;;;2.27;;
42802;SDS011;28447;48.682;9.022;2023-04-24T12:53:11;2.20;;;2.00;;
42802;SDS011;28447;48.682;9.022;2023-04-24T12:55:37;2.60;;;2.03;;
42802;SDS011;28447;48.682;9.022;2023-04-24T12:58:03;3.33;;;2.60;;
42802;SDS011;28447;48.682;9.022;2023-04-24T13:00:28;9.27;;;3.40;;
42802;SDS011;28447;48.682;9.022;2023-04-24T13:02:54;3.47;;;2.40;;
42802;SDS011;28447;48.682;9.022;2023-04-24T13:05:20;3.67;;;3.10;;
42802;SDS011;28447;48.682;9.022;2023-04-24T13:07:46;2.70;;;2.40;;
42802;SDS011;28447;48.682;9.022;2023-04-24T13:10:11;4.63;;;2.87;;
42802;SDS011;28447;48.682;9.022;2023-04-24T13:12:38;4.73;;;2.73;;
42802;SDS011;28447;48.682;9.022;2023-04-24T13:15:04;3.70;;;2.53;;
42802;SDS011;28447;48.682;9.022;2023-04-24T13:17:31;3.00;;;2.43;;
42802;SDS011;28447;48.682;9.022;2023-04-24T13:19:56;4.70;;;2.43;;
42802;SDS011;28447;48.682;9.022;2023-04-24T13:22:22;3.50;;;2.90;;
42802;SDS011;28447;48.682;9.022;2023-04-24T13:24:47;3.40;;;2.57;;
42802;SDS011;28447;48.682;9.022;2023-04-24T13:27:14;4.00;;;3.03;;
42802;SDS011;28447;48.682;9.022;2023-04-24T13:29:40;4.20;;;2.67;;
42802;SDS011;28447;48.682;9.022;2023-04-24T13:32:06;3.57;;;3.13;;
42802;SDS011;28447;48.682;9.022;2023-04-24T13:34:32;6.30;;;3.17;;
42802;SDS011;28447;48.682;9.022;2023-04-24T13:36:59;3.83;;;2.80;;
42802;SDS011;28447;48.682;9.022;2023-04-24T13:39:25;3.07;;;2.63;;
42802;SDS011;28447;48.682;9.022;2023-04-24T13:41:51;6.03;;;3.00;;
42802;SDS011;28447;48.682;9.022;2023-04-24T13:44:18;4.87;;;2.90;;
42802;SDS011;28447;48.682;9.022;2023-04-24T13:46:45;3.40;;;2.90;;
42802;SDS011;28447;48.682;9.022;2023-04-24T13:49:12;3.27;;;2.60;;
42802;SDS011;28447;48.682;9.022;2023-04-24T13:51:38;4.37;;;3.30;;
42802;SDS011;28447;48.682;9.022;2023-04-24T13:54:05;7.60;;;3.30;;
42802;SDS011;28447;48.682;9.022;2023-04-24T13:56:30;4.40;;;3.07;;
42802;SDS011;28447;48.682;9.022;2023-04-24T13:58:56;4.60;;;3.03;;
42802;SDS011;28447;48.682;9.022;2023-04-24T14:01:22;6.77;;;3.40;;
42802;SDS011;28447;48.682;9.022;2023-04-24T14:03:52;3.33;;;2.90;;
42802;SDS011;28447;48.682;9.022;2023-04-24T14:06:19;4.53;;;3.17;;
42802;SDS011;28447;48.682;9.022;2023-04-24T14:08:45;3.47;;;3.00;;
42802;SDS011;28447;48.682;9.022;2023-04-24T14:11:11;6.33;;;3.07;;
42802;SDS011;28447;48.682;9.022;2023-04-24T14:13:37;3.57;;;3.23;;
42802;SDS011;28447;48.682;9.022;2023-04-24T14:16:03;3.97;;;3.20;;
42802;SDS011;28447;48.682;9.022;2023-04-24T14:18:29;4.37;;;3.67;;
42802;SDS011;28447;48.682;9.022;2023-04-24T14:20:56;5.97;;;4.23;;
42802;SDS011;28447;48.682;9.022;2023-04-24T14:23:22;6.30;;;4.30;;
42802;SDS011;28447;48.682;9.022;2023-04-24T14:25:48;7.60;;;4.13;;
42802;SDS011;28447;48.682;9.022;2023-04-24T14:28:17;3.87;;;3.40;;
42802;SDS011;28447;48.682;9.022;2023-04-24T14:30:43;3.77;;;3.40;;
42802;SDS011;28447;48.682;9.022;2023-04-24T14:33:09;4.43;;;3.80;;
42802;SDS011;28447;48.682;9.022;2023-04-24T14:35:35;5.73;;;3.90;;
42802;SDS011;28447;48.682;9.022;2023-04-24T14:38:02;3.83;;;3.10;;
42802;SDS011;28447;48.682;9.022;2023-04-24T14:40:28;4.80;;;3.20;;
42802;SDS011;28447;48.682;9.022;2023-04-24T14:42:53;4.00;;;3.43;;
42802;SDS011;28447;48.682;9.022;2023-04-24T14:45:19;3.80;;;3.10;;
42802;SDS011;28447;48.682;9.022;2023-04-24T14:47:45;6.73;;;3.50;;
42802;SDS011;28447;48.682;9.022;2023-04-24T14:50:10;3.93;;;3.20;;
42802;SDS011;28447;48.682;9.022;2023-04-24T14:52:37;7.77;;;3.37;;
42802;SDS011;28447;48.682;9.022;2023-04-24T14:55:03;3.00;;;2.70;;
42802;SDS011;28447;48.682;9.022;2023-04-24T14:57:30;3.37;;;2.47;;
42802;SDS011;28447;48.682;9.022;2023-04-24T14:59:55;3.43;;;2.70;;
42802;SDS011;28447;48.682;9.022;2023-04-24T15:02:21;3.33;;;2.73;;
42802;SDS011;28447;48.682;9.022;2023-04-24T15:04:47;2.73;;;2.30;;
42802;SDS011;28447;48.682;9.022;2023-04-24T15:07:12;3.50;;;2.73;;
42802;SDS011;28447;48.682;9.022;2023-04-24T15:09:38;2.97;;;2.67;;
42802;SDS011;28447;48.682;9.022;2023-04-24T15:12:03;3.60;;;2.70;;
42802;SDS011;28447;48.682;9.022;2023-04-24T15:14:29;4.70;;;2.50;;
42802;SDS011;28447;48.682;9.022;2023-04-24T15:16:55;2.70;;;2.50;;
42802;SDS011;28447;48.682;9.022;2023-04-24T15:19:20;3.00;;;2.50;;
42802;SDS011;28447;48.682;9.022;2023-04-24T15:21:46;3.83;;;3.30;;
42802;SDS011;28447;48.682;9.022;2023-04-24T15:24:12;3.63;;;2.57;;
42802;SDS011;28447;48.682;9.022;2023-04-24T15:26:37;2.93;;;2.63;;
42802;SDS011;28447;48.682;9.022;2023-04-24T15:29:03;4.00;;;2.80;;
42802;SDS011;28447;48.682;9.022;2023-04-24T15:31:29;3.53;;;2.73;;
42802;SDS011;28447;48.682;9.022;2023-04-24T15:33:55;2.87;;;2.40;;
42802;SDS011;28447;48.682;9.022;2023-04-24T15:36:20;3.10;;;2.80;;
42802;SDS011;28447;48.682;9.022;2023-04-24T15:38:46;2.90;;;2.40;;
42802;SDS011;28447;48.682;9.022;2023-04-24T15:41:12;3.83;;;2.83;;
42802;SDS011;28447;48.682;9.022;2023-04-24T15:43:38;3.20;;;2.90;;
42802;SDS011;28447;48.682;9.022;2023-04-24T15:46:06;3.20;;;2.50;;
42802;SDS011;28447;48.682;9.022;2023-04-24T15:48:32;3.50;;;3.20;;
42802;SDS011;28447;48.682;9.022;2023-04-24T15:50:57;4.47;;;2.73;;
42802;SDS011;28447;48.682;9.022;2023-04-24T15:53:26;5.03;;;3.00;;
42802;SDS011;28447;48.682;9.022;2023-04-24T15:55:52;3.73;;;2.90;;
42802;SDS011;28447;48.682;9.022;2023-04-24T15:58:21;3.20;;;2.70;;
42802;SDS011;28447;48.682;9.022;2023-04-24T16:00:47;3.33;;;2.90;;
42802;SDS011;28447;48.682;9.022;2023-04-24T16:03:13;4.03;;;2.70;;
42802;SDS011;28447;48.682;9.022;2023-04-24T16:05:40;2.47;;;2.27;;
42802;SDS011;28447;48.682;9.022;2023-04-24T16:08:05;3.00;;;2.47;;
42802;SDS011;28447;48.682;9.022;2023-04-24T16:10:31;3.13;;;2.60;;
42802;SDS011;28447;48.682;9.022;2023-04-24T16:12:57;2.97;;;2.50;;
42802;SDS011;28447;48.682;9.022;2023-04-24T16:15:25;2.83;;;2.53;;
42802;SDS011;28447;48.682;9.022;2023-04-24T16:17:50;3.80;;;2.70;;
42802;SDS011;28447;48.682;9.022;2023-04-24T16:20:16;4.20;;;2.93;;
42802;SDS011;28447;48.682;9.022;2023-04-24T16:22:42;4.10;;;2.50;;
42802;SDS011;28447;48.682;9.022;2023-04-24T16:25:08;3.07;;;2.50;;
42802;SDS011;28447;48.682;9.022;2023-04-24T16:27:34;2.90;;;2.63;;
42802;SDS011;28447;48.682;9.022;2023-04-24T16:30:01;3.23;;;2.83;;
42802;SDS011;28447;48.682;9.022;2023-04-24T16:32:27;2.70;;;2.40;;
42802;SDS011;28447;48.682;9.022;2023-04-24T16:34:53;3.10;;;2.57;;
42802;SDS011;28447;48.682;9.022;2023-04-24T16:37:19;3.47;;;2.70;;
42802;SDS011;28447;48.682;9.022;2023-04-24T16:39:45;3.20;;;2.90;;
42802;SDS011;28447;48.682;9.022;2023-04-24T16:42:11;3.50;;;2.50;;
42802;SDS011;28447;48.682;9.022;2023-04-24T16:44:38;2.40;;;2.20;;
42802;SDS011;28447;48.682;9.022;2023-04-24T16:47:05;3.30;;;2.60;;
42802;SDS011;28447;48.682;9.022;2023-04-24T16:49:31;4.03;;;2.57;;
42802;SDS011;28447;48.682;9.022;2023-04-24T16:51:57;3.40;;;2.50;;
42802;SDS011;28447;48.682;9.022;2023-04-24T16:54:23;3.70;;;2.47;;
42802;SDS011;28447;48.682;9.022;2023-04-24T16:56:49;2.70;;;2.03;;
42802;SDS011;28447;48.682;9.022;2023-04-24T16:59:16;7.20;;;2.00;;
42802;SDS011;28447;48.682;9.022;2023-04-24T17:01:42;2.13;;;1.80;;
42802;SDS011;28447;48.682;9.022;2023-04-24T17:04:07;2.60;;;1.87;;
42802;SDS011;28447;48.682;9.022;2023-04-24T17:06:33;3.07;;;2.00;;
42802;SDS011;28447;48.682;9.022;2023-04-24T17:08:59;3.30;;;2.10;;
42802;SDS011;28447;48.682;9.022;2023-04-24T17:11:25;2.83;;;2.20;;
42802;SDS011;28447;48.682;9.022;2023-04-24T17:13:51;2.17;;;1.90;;
42802;SDS011;28447;48.682;9.022;2023-04-24T17:16:17;2.77;;;2.33;;
42802;SDS011;28447;48.682;9.022;2023-04-24T17:18:43;2.77;;;2.13;;
42802;SDS011;28447;48.682;9.022;2023-04-24T17:21:08;2.20;;;2.00;;
42802;SDS011;28447;48.682;9.022;2023-04-24T17:23:34;2.60;;;2.00;;
42802;SDS011;28447;48.682;9.022;2023-04-24T17:26:00;3.03;;;2.37;;
42802;SDS011;28447;48.682;9.022;2023-04-24T17:28:26;3.03;;;2.57;;
42802;SDS011;28447;48.682;9.022;2023-04-24T17:30:54;3.43;;;2.37;;
42802;SDS011;28447;48.682;9.022;2023-04-24T17:33:25;4.77;;;2.17;;
42802;SDS011;28447;48.682;9.022;2023-04-24T17:35:57;2.70;;;2.17;;
42802;SDS011;28447;48.682;9.022;2023-04-24T17:38:26;2.83;;;2.50;;
42802;SDS011;28447;48.682;9.022;2023-04-24T17:40:55;2.47;;;2.00;;
42802;SDS011;28447;48.682;9.022;2023-04-24T17:43:21;4.13;;;2.90;;
42802;SDS011;28447;48.682;9.022;2023-04-24T17:45:48;5.50;;;2.73;;
42802;SDS011;28447;48.682;9.022;2023-04-24T17:48:16;2.87;;;2.57;;
42802;SDS011;28447;48.682;9.022;2023-04-24T17:50:43;5.53;;;2.97;;
42802;SDS011;28447;48.682;9.022;2023-04-24T17:53:10;3.57;;;2.50;;
42802;SDS011;28447;48.682;9.022;2023-04-24T17:55:36;3.10;;;2.63;;
42802;SDS011;28447;48.682;9.022;2023-04-24T17:58:03;3.10;;;2.67;;
42802;SDS011;28447;48.682;9.022;2023-04-24T18:00:29;5.60;;;2.70;;
42802;SDS011;28447;48.682;9.022;2023-04-24T18:02:55;5.23;;;2.67;;
42802;SDS011;28447;48.682;9.022;2023-04-24T18:05:25;4.60;;;3.07;;
42802;SDS011;28447;48.682;9.022;2023-04-24T18:07:52;4.10;;;2.97;;
42802;SDS011;28447;48.682;9.022;2023-04-24T18:10:18;3.77;;;2.80;;
42802;SDS011;28447;48.682;9.022;2023-04-24T18:12:43;3.60;;;2.70;;
42802;SDS011;28447;48.682;9.022;2023-04-24T18:15:09;5.20;;;2.90;;
42802;SDS011;28447;48.682;9.022;2023-04-24T18:17:35;4.87;;;3.27;;
42802;SDS011;28447;48.682;9.022;2023-04-24T18:20:01;4.07;;;3.00;;
42802;SDS011;28447;48.682;9.022;2023-04-24T18:22:27;3.90;;;2.77;;
42802;SDS011;28447;48.682;9.022;2023-04-24T18:24:53;4.37;;;3.20;;
42802;SDS011;28447;48.682;9.022;2023-04-24T18:27:19;3.47;;;3.17;;
42802;SDS011;28447;48.682;9.022;2023-04-24T18:29:44;3.50;;;2.90;;
42802;SDS011;28447;48.682;9.022;2023-04-24T18:32:10;5.50;;;3.00;;
42802;SDS011;28447;48.682;9.022;2023-04-24T18:34:36;4.80;;;3.20;;
42802;SDS011;28447;48.682;9.022;2023-04-24T18:37:01;3.37;;;2.90;;
42802;SDS011;28447;48.682;9.022;2023-04-24T18:39:27;3.40;;;2.80;;
42802;SDS011;28447;48.682;9.022;2023-04-24T18:41:52;4.37;;;2.40;;
42802;SDS011;28447;48.682;9.022;2023-04-24T18:44:21;3.10;;;2.63;;
42802;SDS011;28447;48.682;9.022;2023-04-24T18:46:47;4.17;;;2.80;;
42802;SDS011;28447;48.682;9.022;2023-04-24T18:49:13;4.07;;;3.10;;
42802;SDS011;28447;48.682;9.022;2023-04-24T18:51:38;5.00;;;3.20;;
42802;SDS011;28447;48.682;9.022;2023-04-24T18:54:04;4.50;;;3.10;;
42802;SDS011;28447;48.682;9.022;2023-04-24T18:56:30;3.50;;;2.97;;
42802;SDS011;28447;48.682;9.022;2023-04-24T18:58:56;3.83;;;3.13;;
42802;SDS011;28447;48.682;9.022;2023-04-24T19:01:21;3.10;;;2.63;;